»·PEaware :: N15JG KSNA-KSNA

N15JG :: KSNA-KSNA

FLIGHT INFORMATION

Flight Status: Arrived
Operator: Privately registered:
United States
More flights under this callsign
Pilot: Anonymous 11047 (11047)
Aircraft: CESSNA 177 CARDINAL RG
(C77R)
More flights by this aircraft type
Origin: KSNA John Wayne-Orange Co
United States
Destination: KSNA John Wayne-Orange Co
United States
More flights between these airports :: More routes between these airports
Route: +
File this flight plan on PilotEdge
Remarks: nffw
Altitude:
(Current/Filed)
0ft
Speed:
(Current/Filed)
0kts
Departed: 18-Nov-16 09:39 PM
Arrived: 18-Nov-16 10:30 PM
Distance/Time
Traveled:
0nm/0:51
Distance/Time
To Go:
Arrived

Flight Plot

Page will automatically refresh every two minutes.


Map Options




Map Legend


Flown Route
Filed Route
Departure Airport
Arrival Airport
Navaid (VOR, NDB)
Fix

Horizontal Profiles

Position Reports

Time Latitude Longitude Heading Altitude Ground
Speed
18-Nov-16 21:25 33.675388 -117.871546 220 59ft 0kts
18-Nov-16 21:26 33.675387 -117.871546 220 59ft 0kts
18-Nov-16 21:27 33.675387 -117.871547 220 59ft 0kts
18-Nov-16 21:28 33.675386 -117.871548 220 59ft 0kts
18-Nov-16 21:29 33.675189 -117.870717 25 59ft 10kts
18-Nov-16 21:30 33.678357 -117.868750 30 59ft 13kts
18-Nov-16 21:31 33.680900 -117.866615 116 59ft 7kts
18-Nov-16 21:32 33.680840 -117.866478 123 59ft 0kts
18-Nov-16 21:33 33.675915 -117.868659 207 85ft 79kts
18-Nov-16 21:34 33.658776 -117.888695 259 1099ft 108kts
18-Nov-16 21:35 33.649714 -117.923011 246 2155ft 126kts
18-Nov-16 21:36 33.636961 -117.968271 242 2320ft 140kts
18-Nov-16 21:37 33.612244 -118.004120 227 2271ft 140kts
18-Nov-16 21:38 33.591831 -118.044064 239 2382ft 143kts
18-Nov-16 21:39 33.569172 -118.082758 233 2532ft 141kts
18-Nov-16 21:40 33.548562 -118.121731 237 2491ft 135kts
18-Nov-16 21:41 33.529142 -118.159131 236 2683ft 122kts
18-Nov-16 21:42 33.512081 -118.193349 233 3101ft 118kts
18-Nov-16 21:43 33.491840 -118.224786 224 3474ft 119kts
18-Nov-16 21:44 33.466449 -118.252110 219 3674ft 127kts
18-Nov-16 21:45 33.440469 -118.280525 213 3799ft 127kts
18-Nov-16 21:46 33.409584 -118.300454 207 3838ft 125kts
18-Nov-16 21:47 33.379320 -118.321550 203 3870ft 125kts
18-Nov-16 21:48 33.349413 -118.343811 216 3987ft 127kts
18-Nov-16 21:49 33.330766 -118.379995 259 4011ft 134kts
18-Nov-16 21:50 33.343404 -118.421054 327 4046ft 147kts
18-Nov-16 21:51 33.383759 -118.428720 357 3508ft 148kts
18-Nov-16 21:52 33.418458 -118.426574 58 2382ft 122kts
18-Nov-16 21:53 33.431921 -118.400625 120 2386ft 90kts
18-Nov-16 21:54 33.414143 -118.400529 230 2120ft 67kts
18-Nov-16 21:55 33.421824 -118.418919 11 1586ft 115kts
18-Nov-16 21:56 33.450758 -118.418064 299 2308ft 120kts
18-Nov-16 21:57 33.438034 -118.448926 173 2727ft 109kts
18-Nov-16 21:58 33.416373 -118.425798 88 2493ft 121kts
18-Nov-16 21:59 33.429850 -118.395700 112 2182ft 92kts
18-Nov-16 22:00 33.413764 -118.401410 229 1999ft 77kts
18-Nov-16 22:01 33.403252 -118.418743 234 1605ft 76kts
18-Nov-16 22:02 33.392498 -118.445866 251 2470ft 91kts
18-Nov-16 22:03 33.413502 -118.449609 59 2732ft 129kts
18-Nov-16 22:04 33.427026 -118.414618 65 3492ft 105kts
18-Nov-16 22:05 33.438975 -118.385505 60 4211ft 103kts
18-Nov-16 22:06 33.440257 -118.383255 59 4266ft 103kts
18-Nov-16 22:07 33.453488 -118.352888 73 5057ft 101kts
18-Nov-16 22:08 33.454917 -118.318359 103 5415ft 125kts
18-Nov-16 22:09 33.446713 -118.278634 111 5774ft 130kts
18-Nov-16 22:10 33.454657 -118.236803 59 5924ft 144kts
18-Nov-16 22:11 33.477708 -118.201143 60 5873ft 141kts
18-Nov-16 22:12 33.494343 -118.161277 67 5382ft 122kts
18-Nov-16 22:13 33.513561 -118.127934 54 5547ft 123kts
18-Nov-16 22:14 33.541611 -118.096979 42 5215ft 145kts
18-Nov-16 22:15 33.567426 -118.064042 56 4611ft 138kts
18-Nov-16 22:16 33.588062 -118.025542 65 3988ft 136kts
18-Nov-16 22:17 33.608944 -117.987524 55 3449ft 136kts
18-Nov-16 22:18 33.630251 -117.950262 57 2899ft 135kts
18-Nov-16 22:19 33.653137 -117.915091 41 2361ft 131kts
18-Nov-16 22:20 33.683191 -117.891669 31 1519ft 125kts
18-Nov-16 22:21 33.707994 -117.874236 33 1102ft 94kts
18-Nov-16 22:22 33.700456 -117.852898 193 637ft 80kts
18-Nov-16 22:23 33.681654 -117.865036 208 97ft 69kts
18-Nov-16 22:24 33.675878 -117.869816 298 59ft 9kts
18-Nov-16 22:25 33.675989 -117.870082 265 59ft 3kts
18-Nov-16 22:26 33.675416 -117.871514 217 59ft 0kts
18-Nov-16 22:27 33.675416 -117.871514 217 59ft 0kts

Navigation Log

Ident Type
1. KSNA Airport
2. KSNA Airport